createdAt,value
2019-04-02T00:00:30.369Z,7.54
2019-04-02T00:01:30.371Z,7.45
2019-04-02T00:02:30.352Z,7.52
2019-04-02T00:03:30.344Z,7.45
2019-04-02T00:04:30.355Z,7.44
2019-04-02T00:05:30.321Z,7.50
2019-04-02T00:06:31.126Z,7.48
2019-04-02T00:07:30.299Z,7.33
2019-04-02T00:08:31.244Z,7.34
2019-04-02T00:09:30.289Z,7.39
2019-04-02T00:10:30.268Z,7.34
2019-04-02T00:11:30.256Z,7.39
2019-04-02T00:12:30.290Z,7.37
2019-04-02T00:13:30.236Z,7.33
2019-04-02T00:14:30.241Z,7.26
2019-04-02T00:15:30.218Z,7.37
2019-04-02T00:16:30.190Z,7.37
2019-04-02T00:17:30.189Z,7.33
2019-04-02T00:18:30.181Z,7.33
2019-04-02T00:19:30.191Z,7.36
2019-04-02T00:20:30.161Z,7.33
2019-04-02T00:21:31.133Z,7.32
2019-04-02T00:22:30.126Z,7.32
2019-04-02T00:23:30.117Z,7.24
2019-04-02T00:24:30.133Z,7.33
2019-04-02T00:25:30.099Z,7.36
2019-04-02T00:26:30.106Z,7.30
2019-04-02T00:27:30.068Z,7.33
2019-04-02T00:28:30.073Z,7.34
2019-04-02T00:29:30.070Z,7.32
2019-04-02T00:30:30.035Z,7.29
2019-04-02T00:31:30.034Z,7.32
2019-04-02T00:32:30.021Z,7.26
2019-04-02T00:33:30.018Z,7.30
2019-04-02T00:34:30.022Z,7.33
2019-04-02T00:35:29.994Z,7.24
2019-04-02T00:36:29.980Z,7.27
2019-04-02T00:37:29.968Z,7.30
2019-04-02T00:38:29.961Z,7.27
2019-04-02T00:39:29.967Z,7.27
2019-04-02T00:40:29.936Z,7.18
2019-04-02T00:41:30.367Z,7.19
2019-04-02T00:42:29.912Z,7.14
2019-04-02T00:43:29.912Z,7.23
2019-04-02T00:44:29.914Z,7.32
2019-04-02T00:45:29.873Z,7.34
2019-04-02T00:46:29.867Z,7.33
2019-04-02T00:47:29.853Z,7.30
2019-04-02T00:48:29.851Z,7.27
2019-04-02T00:49:29.853Z,7.30
2019-04-02T00:50:29.846Z,7.30
2019-04-02T00:51:29.824Z,7.30
2019-04-02T00:52:29.805Z,7.30
2019-04-02T00:53:29.789Z,7.27
2019-04-02T00:54:30.254Z,7.27
2019-04-02T00:55:30.370Z,7.27
2019-04-02T00:56:29.770Z,7.19
2019-04-02T00:57:29.743Z,7.18
2019-04-02T00:58:29.731Z,7.21
2019-04-02T00:59:29.729Z,7.16
2019-04-02T01:00:29.741Z,7.15
2019-04-02T01:01:29.705Z,7.19
2019-04-02T01:02:29.689Z,7.19
2019-04-02T01:04:39.446Z,7.23
2019-04-02T01:05:39.887Z,7.16
2019-04-02T01:06:39.844Z,7.05
2019-04-02T01:07:39.833Z,7.05
2019-04-02T01:08:39.835Z,7.05
2019-04-02T01:09:39.822Z,7.09
2019-04-02T01:10:39.824Z,6.97
2019-04-02T01:11:39.806Z,7.00
2019-04-02T01:12:39.785Z,7.00
2019-04-02T01:13:39.780Z,7.09
2019-04-02T01:14:39.778Z,6.97
2019-04-02T01:15:39.774Z,7.05
2019-04-02T01:16:39.745Z,6.97
2019-04-02T01:17:40.700Z,7.01
2019-04-02T01:18:39.726Z,6.96
2019-04-02T01:19:39.862Z,7.08
2019-04-02T01:20:39.726Z,7.11
2019-04-02T01:21:39.697Z,7.04
2019-04-02T01:22:39.687Z,7.01
2019-04-02T01:23:39.677Z,7.01
2019-04-02T01:24:39.667Z,6.96
2019-04-02T01:25:39.665Z,6.99
2019-04-02T01:26:39.635Z,6.96
2019-04-02T01:27:39.621Z,7.00
2019-04-02T01:28:39.619Z,7.01
2019-04-02T01:29:39.604Z,7.01
2019-04-02T01:30:39.615Z,6.89
2019-04-02T01:31:39.580Z,7.01
2019-04-02T01:32:39.582Z,7.00
2019-04-02T01:33:40.274Z,7.01
2019-04-02T01:34:39.551Z,6.96
2019-04-02T01:35:39.563Z,6.90
2019-04-02T01:36:39.529Z,6.99
2019-04-02T01:37:39.522Z,6.99
2019-04-02T01:38:39.515Z,7.04
2019-04-02T01:39:39.501Z,6.96
2019-04-02T01:40:39.510Z,6.90
2019-04-02T01:41:39.471Z,6.87
2019-04-02T01:42:39.460Z,6.90
2019-04-02T01:43:39.453Z,7.05
2019-04-02T01:44:39.454Z,6.93
2019-04-02T01:45:39.453Z,6.91
2019-04-02T01:46:39.425Z,6.86
2019-04-02T01:47:39.421Z,6.90
2019-04-02T01:48:39.409Z,6.93
2019-04-02T01:49:39.618Z,6.78
2019-04-02T01:50:39.413Z,6.86
2019-04-02T01:51:39.372Z,6.82
2019-04-02T01:52:39.360Z,6.78
2019-04-02T01:53:39.346Z,6.69
2019-04-02T01:54:39.331Z,6.81
2019-04-02T01:55:39.347Z,6.68
2019-04-02T01:56:39.315Z,6.63
2019-04-02T01:57:39.303Z,6.64
2019-04-02T01:58:39.304Z,6.69
2019-04-02T01:59:39.278Z,6.64
2019-04-02T02:00:39.288Z,6.72
2019-04-02T02:01:39.271Z,6.72
2019-04-02T02:02:39.251Z,6.61
2019-04-02T02:03:39.243Z,6.65
2019-04-02T02:04:39.234Z,6.61
2019-04-02T02:05:39.243Z,6.63
2019-04-02T02:06:41.063Z,6.69
2019-04-02T02:07:39.550Z,6.58
2019-04-02T02:08:39.188Z,6.65
2019-04-02T02:09:39.187Z,6.58
2019-04-02T02:10:39.202Z,6.65
2019-04-02T02:11:39.162Z,6.60
2019-04-02T02:12:39.150Z,6.58
2019-04-02T02:13:39.147Z,6.58
2019-04-02T02:14:39.120Z,6.57
2019-04-02T02:15:39.124Z,6.64
2019-04-02T02:16:39.111Z,6.61
2019-04-02T02:17:39.102Z,6.57
2019-04-02T02:18:39.079Z,6.53
2019-04-02T02:19:39.069Z,6.48
2019-04-02T02:20:39.093Z,6.43
2019-04-02T02:21:39.060Z,6.53
2019-04-02T02:22:39.034Z,6.51
2019-04-02T02:23:40.251Z,6.48
2019-04-02T02:24:39.016Z,6.51
2019-04-02T02:25:39.037Z,6.57
2019-04-02T02:26:39.020Z,6.51
2019-04-02T02:27:38.986Z,6.50
2019-04-02T02:28:38.980Z,6.42
2019-04-02T02:29:38.964Z,6.54
2019-04-02T02:30:38.992Z,6.46
2019-04-02T02:31:38.977Z,6.42
2019-04-02T02:32:38.942Z,6.40
2019-04-02T02:33:38.935Z,6.46
2019-04-02T02:34:39.473Z,6.43
2019-04-02T02:35:40.015Z,6.42
2019-04-02T02:36:40.229Z,6.40
2019-04-02T02:37:41.068Z,6.42
2019-04-02T02:38:39.752Z,6.36
2019-04-02T02:39:40.590Z,6.32
2019-04-02T02:40:40.666Z,6.32
2019-04-02T02:41:38.836Z,6.30
2019-04-02T02:42:38.830Z,6.30
2019-04-02T02:43:38.815Z,6.33
2019-04-02T02:44:38.833Z,6.33
2019-04-02T02:45:38.826Z,6.28
2019-04-02T02:46:38.790Z,6.19
2019-04-02T02:47:38.779Z,6.20
2019-04-02T02:48:38.766Z,6.19
2019-04-02T02:49:38.764Z,6.25
2019-04-02T02:50:38.751Z,6.21
2019-04-02T02:51:38.740Z,6.21
2019-04-02T02:52:38.723Z,6.20
2019-04-02T02:53:38.719Z,6.27
2019-04-02T02:54:38.698Z,6.21
2019-04-02T02:55:38.727Z,6.21
2019-04-02T02:56:38.698Z,6.10
2019-04-02T02:57:38.661Z,6.17
2019-04-02T02:58:38.659Z,6.19
2019-04-02T02:59:38.636Z,6.21
2019-04-02T03:00:38.634Z,6.11
2019-04-02T03:01:38.735Z,6.20
2019-04-02T03:02:38.617Z,6.20
2019-04-02T03:03:38.608Z,6.14
2019-04-02T03:05:47.787Z,6.20
2019-04-02T03:06:48.789Z,6.25
2019-04-02T03:07:48.772Z,6.30
2019-04-02T03:08:48.759Z,6.21
2019-04-02T03:09:48.747Z,6.27
2019-04-02T03:10:48.737Z,6.21
2019-04-02T03:11:48.740Z,6.19
2019-04-02T03:12:48.710Z,6.20
2019-04-02T03:13:48.704Z,6.20
2019-04-02T03:14:48.679Z,6.24
2019-04-02T03:15:48.714Z,6.25
2019-04-02T03:16:48.689Z,6.24
2019-04-02T03:17:48.663Z,6.17
2019-04-02T03:18:48.663Z,6.19
2019-04-02T03:19:49.573Z,6.28
2019-04-02T03:20:48.621Z,6.21
2019-04-02T03:21:48.631Z,6.35
2019-04-02T03:22:48.611Z,6.38
2019-04-02T03:23:49.059Z,6.33
2019-04-02T03:24:51.094Z,6.30
2019-04-02T03:25:48.574Z,6.32
2019-04-02T03:26:51.442Z,6.42
2019-04-02T03:27:48.545Z,6.40
2019-04-02T03:28:48.527Z,6.33
2019-04-02T03:29:48.516Z,6.36
2019-04-02T03:30:48.513Z,6.32
2019-04-02T03:31:48.553Z,6.35
2019-04-02T03:32:48.498Z,6.39
2019-04-02T03:33:49.600Z,6.36
2019-04-02T03:34:48.481Z,6.45
2019-04-02T03:35:49.993Z,6.42
2019-04-02T03:36:48.469Z,6.33
2019-04-02T03:37:48.424Z,6.36
2019-04-02T03:38:48.435Z,6.45
2019-04-02T03:39:48.417Z,6.32
2019-04-02T03:40:48.404Z,6.38
2019-04-02T03:41:48.414Z,6.45
2019-04-02T03:42:48.378Z,6.46
2019-04-02T03:43:48.369Z,6.35
2019-04-02T03:44:48.366Z,6.43
2019-04-02T03:45:48.353Z,6.40
2019-04-02T03:46:48.361Z,6.36
2019-04-02T03:47:48.328Z,6.42
2019-04-02T03:48:48.322Z,6.38
2019-04-02T03:49:48.301Z,6.33
2019-04-02T03:50:52.145Z,6.36
2019-04-02T03:51:48.305Z,6.28
2019-04-02T03:52:48.418Z,6.40
2019-04-02T03:53:49.654Z,6.39
2019-04-02T03:54:48.251Z,6.42
2019-04-02T03:55:48.233Z,6.46
2019-04-02T03:56:48.329Z,6.38
2019-04-02T03:57:48.218Z,6.39
2019-04-02T03:58:48.209Z,6.39
2019-04-02T03:59:48.186Z,6.36
2019-04-02T04:00:48.184Z,6.42
2019-04-02T04:01:48.185Z,6.42
2019-04-02T04:02:48.187Z,6.39
2019-04-02T04:03:48.155Z,6.45
2019-04-02T04:04:48.151Z,6.46
2019-04-02T04:05:48.131Z,6.40
2019-04-02T04:06:48.120Z,6.40
2019-04-02T04:07:48.140Z,6.40
2019-04-02T04:08:48.116Z,6.39
2019-04-02T04:09:48.298Z,6.36
2019-04-02T04:10:48.080Z,6.38
2019-04-02T04:11:48.069Z,6.33
2019-04-02T04:12:48.078Z,6.35
2019-04-02T04:13:48.034Z,6.38
2019-04-02T04:14:48.060Z,6.30
2019-04-02T04:15:48.032Z,6.25
2019-04-02T04:16:48.415Z,6.36
2019-04-02T04:17:48.788Z,6.35
2019-04-02T04:18:49.421Z,6.25
2019-04-02T04:19:49.290Z,6.27
2019-04-02T04:20:47.966Z,6.28
2019-04-02T04:21:47.945Z,6.21
2019-04-02T04:22:47.959Z,6.21
2019-04-02T04:23:47.934Z,6.24
2019-04-02T04:24:47.931Z,6.21
2019-04-02T04:25:47.920Z,6.21
2019-04-02T04:26:47.903Z,6.28
2019-04-02T04:27:47.912Z,6.36
2019-04-02T04:28:47.882Z,6.36
2019-04-02T04:29:47.862Z,6.36
2019-04-02T04:30:47.882Z,6.36
2019-04-02T04:31:47.844Z,6.28
2019-04-02T04:32:47.853Z,6.43
2019-04-02T04:33:47.821Z,6.39
2019-04-02T04:34:47.818Z,6.48
2019-04-02T04:35:47.811Z,6.38
2019-04-02T04:36:47.788Z,6.39
2019-04-02T04:37:47.823Z,6.43
2019-04-02T04:38:48.963Z,6.42
2019-04-02T04:39:49.216Z,6.30
2019-04-02T04:40:49.575Z,6.33
2019-04-02T04:41:49.641Z,6.38
2019-04-02T04:42:49.670Z,6.32
2019-04-02T04:43:47.730Z,6.33
2019-04-02T04:44:47.698Z,6.33
2019-04-02T04:45:47.694Z,6.39
2019-04-02T04:46:47.678Z,6.35
2019-04-02T04:47:47.687Z,6.28
2019-04-02T04:48:47.659Z,6.32
2019-04-02T04:49:47.657Z,6.39
2019-04-02T04:50:47.633Z,6.30
2019-04-02T04:51:47.629Z,6.32
2019-04-02T04:52:47.633Z,6.39
2019-04-02T04:53:47.608Z,6.27
2019-04-02T04:54:47.620Z,6.21
2019-04-02T04:55:47.583Z,6.33
2019-04-02T04:56:47.577Z,6.33
2019-04-02T04:57:47.591Z,6.30
2019-04-02T04:58:47.557Z,6.36
2019-04-02T04:59:47.538Z,6.30
2019-04-02T05:00:49.641Z,6.33
2019-04-02T05:01:48.489Z,6.36
2019-04-02T05:02:47.562Z,6.28
2019-04-02T05:03:47.497Z,6.36
2019-04-02T05:04:47.492Z,6.25
2019-04-02T05:06:56.657Z,6.30
2019-04-02T05:07:57.659Z,6.35
2019-04-02T05:08:57.643Z,6.27
2019-04-02T05:09:57.638Z,6.32
2019-04-02T05:10:57.616Z,6.33
2019-04-02T05:11:57.623Z,6.33
2019-04-02T05:12:57.617Z,6.20
2019-04-02T05:13:57.613Z,6.24
2019-04-02T05:14:57.585Z,6.27
2019-04-02T05:15:57.566Z,6.30
2019-04-02T05:16:57.560Z,6.24
2019-04-02T05:17:57.542Z,6.25
2019-04-02T05:18:57.568Z,6.30
2019-04-02T05:19:57.557Z,6.21
2019-04-02T05:20:57.518Z,6.25
2019-04-02T05:21:57.505Z,6.20
2019-04-02T05:22:57.503Z,6.21
2019-04-02T05:23:58.793Z,6.20
2019-04-02T05:24:57.462Z,6.25
2019-04-02T05:25:57.465Z,6.30
2019-04-02T05:26:57.906Z,6.30
2019-04-02T05:27:57.431Z,6.21
2019-04-02T05:28:57.464Z,6.17
2019-04-02T05:29:57.414Z,6.33
2019-04-02T05:30:57.412Z,6.33
2019-04-02T05:31:57.497Z,6.21
2019-04-02T05:32:57.378Z,6.27
2019-04-02T05:33:58.407Z,6.36
2019-04-02T05:34:57.355Z,6.39
2019-04-02T05:35:57.351Z,6.39
2019-04-02T05:36:57.344Z,6.39
2019-04-02T05:37:59.941Z,6.43
2019-04-02T05:38:57.400Z,6.46
2019-04-02T05:39:57.365Z,6.39
2019-04-02T05:40:57.336Z,6.48
2019-04-02T05:41:57.294Z,6.45
2019-04-02T05:42:57.268Z,6.43
2019-04-02T05:43:57.280Z,6.54
2019-04-02T05:44:57.260Z,6.46
2019-04-02T05:45:57.250Z,6.54
2019-04-02T05:46:57.417Z,6.53
2019-04-02T05:47:57.253Z,6.61
2019-04-02T05:48:57.234Z,6.63
2019-04-02T05:49:57.194Z,6.64
2019-04-02T05:50:57.522Z,6.65
2019-04-02T05:51:57.186Z,6.65
2019-04-02T05:52:57.187Z,6.68
2019-04-02T05:53:57.196Z,6.69
2019-04-02T05:54:57.167Z,6.78
2019-04-02T05:55:57.172Z,6.78
2019-04-02T05:56:57.129Z,6.89
2019-04-02T05:57:57.114Z,6.73
2019-04-02T05:58:57.214Z,6.79
2019-04-02T05:59:59.289Z,6.94
2019-04-02T06:00:57.081Z,6.89
2019-04-02T06:01:57.067Z,7.04
2019-04-02T06:02:57.062Z,6.96
2019-04-02T06:03:57.136Z,7.00
2019-04-02T06:04:57.056Z,7.11
2019-04-02T06:05:57.092Z,7.07
2019-04-02T06:06:57.046Z,7.11
2019-04-02T06:07:57.017Z,7.12
2019-04-02T06:08:57.125Z,7.18
2019-04-02T06:09:56.988Z,7.29
2019-04-02T06:10:56.989Z,7.30
2019-04-02T06:11:56.988Z,7.36
2019-04-02T06:12:57.051Z,7.41
2019-04-02T06:13:56.999Z,7.36
2019-04-02T06:14:57.419Z,7.47
2019-04-02T06:15:56.930Z,7.48
2019-04-02T06:16:56.922Z,7.47
2019-04-02T06:17:56.900Z,7.45
2019-04-02T06:18:56.911Z,7.60
2019-04-02T06:19:58.750Z,7.55
2019-04-02T06:20:56.883Z,7.63
2019-04-02T06:21:56.847Z,7.58
2019-04-02T06:22:56.856Z,7.73
2019-04-02T06:23:56.867Z,7.76
2019-04-02T06:24:56.832Z,7.79
2019-04-02T06:25:56.809Z,7.89
2019-04-02T06:26:56.805Z,7.92
2019-04-02T06:27:56.799Z,7.96
2019-04-02T06:28:58.199Z,8.02
2019-04-02T06:29:56.781Z,8.02
2019-04-02T06:30:56.797Z,7.99
2019-04-02T06:31:56.745Z,8.00
2019-04-02T06:32:56.737Z,8.06
2019-04-02T06:33:56.751Z,8.07
2019-04-02T06:34:56.722Z,8.06
2019-04-02T06:35:56.736Z,8.07
2019-04-02T06:36:56.707Z,8.14
2019-04-02T06:37:56.681Z,8.20
2019-04-02T06:38:56.691Z,8.31
2019-04-02T06:39:56.675Z,8.27
2019-04-02T06:40:56.651Z,8.37
2019-04-02T06:41:56.631Z,8.39
2019-04-02T06:42:56.631Z,8.47
2019-04-02T06:43:56.647Z,8.43
2019-04-02T06:44:56.627Z,8.47
2019-04-02T06:45:56.614Z,8.55
2019-04-02T06:46:56.604Z,8.50
2019-04-02T06:47:56.599Z,8.57
2019-04-02T06:48:56.578Z,8.68
2019-04-02T06:49:56.574Z,8.71
2019-04-02T06:50:56.536Z,8.75
2019-04-02T06:51:56.527Z,8.70
2019-04-02T06:52:56.887Z,8.82
2019-04-02T06:53:57.732Z,8.86
2019-04-02T06:54:56.847Z,8.93
2019-04-02T06:55:58.327Z,9.04
2019-04-02T06:56:56.477Z,9.08
2019-04-02T06:57:59.742Z,9.12
2019-04-02T06:58:56.463Z,9.16
2019-04-02T06:59:56.557Z,9.06
2019-04-02T07:00:56.433Z,9.15
2019-04-02T07:01:56.432Z,9.22
2019-04-02T07:02:56.464Z,9.19
2019-04-02T07:03:56.420Z,9.26
2019-04-02T07:04:56.403Z,9.15
2019-04-02T07:05:56.385Z,9.23
2019-04-02T07:08:05.600Z,9.30
2019-04-02T07:09:06.586Z,9.40
2019-04-02T07:10:07.323Z,9.40
2019-04-02T07:11:06.512Z,9.44
2019-04-02T07:12:06.522Z,9.41
2019-04-02T07:13:06.532Z,9.48
2019-04-02T07:14:06.489Z,9.49
2019-04-02T07:15:06.523Z,9.59
2019-04-02T07:16:06.473Z,9.70
2019-04-02T07:17:06.495Z,9.60
2019-04-02T07:18:06.472Z,9.67
2019-04-02T07:19:06.424Z,9.70
2019-04-02T07:20:06.440Z,9.77
2019-04-02T07:21:06.812Z,9.81
2019-04-02T07:22:06.790Z,9.99
2019-04-02T07:23:07.726Z,9.96
2019-04-02T07:24:07.892Z,10.01
2019-04-02T07:25:06.396Z,10.09
2019-04-02T07:26:06.362Z,10.04
2019-04-02T07:27:06.372Z,10.20
2019-04-02T07:28:06.330Z,10.26
2019-04-02T07:29:06.336Z,10.28
2019-04-02T07:30:06.366Z,10.26
2019-04-02T07:31:06.315Z,10.32
2019-04-02T07:32:06.308Z,10.35
2019-04-02T07:33:06.298Z,10.43
2019-04-02T07:34:06.277Z,10.34
2019-04-02T07:35:06.300Z,10.46
2019-04-02T07:36:08.943Z,10.65
2019-04-02T07:37:06.317Z,10.75
2019-04-02T07:38:06.575Z,10.81
2019-04-02T07:39:07.763Z,10.88
2019-04-02T07:40:06.237Z,10.98
2019-04-02T07:41:07.210Z,11.06
2019-04-02T07:42:06.206Z,11.11
2019-04-02T07:43:06.173Z,11.20
2019-04-02T07:44:06.164Z,11.02
2019-04-02T07:45:06.335Z,11.05
2019-04-02T07:46:06.159Z,11.08
2019-04-02T07:47:06.139Z,11.05
2019-04-02T07:48:06.130Z,11.11
2019-04-02T07:49:06.114Z,11.17
2019-04-02T07:50:08.439Z,11.12
2019-04-02T07:51:06.098Z,11.11
2019-04-02T07:52:06.079Z,11.17
2019-04-02T07:53:06.061Z,11.19
2019-04-02T07:54:06.053Z,11.26
2019-04-02T07:55:06.060Z,11.41
2019-04-02T07:56:06.819Z,11.36
2019-04-02T07:57:06.013Z,11.31
2019-04-02T07:58:07.288Z,11.23
2019-04-02T07:59:06.298Z,11.45
2019-04-02T08:00:06.065Z,11.44
2019-04-02T08:01:05.978Z,11.49
2019-04-02T08:02:08.681Z,11.57
2019-04-02T08:03:05.946Z,11.59
2019-04-02T08:04:05.939Z,11.70
2019-04-02T08:05:05.965Z,11.69
2019-04-02T08:06:05.920Z,11.70
2019-04-02T08:07:05.915Z,11.87
2019-04-02T08:08:05.908Z,11.98
2019-04-02T08:09:05.890Z,12.08
2019-04-02T08:10:05.902Z,12.29
2019-04-02T08:11:05.876Z,12.30
2019-04-02T08:12:05.855Z,12.23
2019-04-02T08:13:06.193Z,12.03
2019-04-02T08:14:06.296Z,12.08
2019-04-02T08:15:06.949Z,12.12
2019-04-02T08:16:05.818Z,11.96
2019-04-02T08:17:05.816Z,12.12
2019-04-02T08:18:05.799Z,12.22
2019-04-02T08:19:05.786Z,12.12
2019-04-02T08:20:05.784Z,12.22
2019-04-02T08:21:05.774Z,12.29
2019-04-02T08:22:05.748Z,12.33
2019-04-02T08:23:05.784Z,12.34
2019-04-02T08:24:05.728Z,12.61
2019-04-02T08:25:05.719Z,12.51
2019-04-02T08:26:05.718Z,12.56
2019-04-02T08:27:05.713Z,12.62
2019-04-02T08:28:05.683Z,12.89
2019-04-02T08:29:05.701Z,12.94
2019-04-02T08:30:05.669Z,12.84
2019-04-02T08:31:05.680Z,12.87
2019-04-02T08:32:05.638Z,12.98
2019-04-02T08:33:05.700Z,13.10
2019-04-02T08:34:07.913Z,13.04
2019-04-02T08:35:05.598Z,12.85
2019-04-02T08:36:06.709Z,12.91
2019-04-02T08:37:05.880Z,12.81
2019-04-02T08:38:08.008Z,12.87
2019-04-02T08:39:05.712Z,12.95
2019-04-02T08:40:05.556Z,12.85
2019-04-02T08:41:05.555Z,12.89
2019-04-02T08:42:08.348Z,12.80
2019-04-02T08:43:05.519Z,12.76
2019-04-02T08:44:05.507Z,12.73
2019-04-02T08:45:05.492Z,12.66
2019-04-02T08:46:06.053Z,12.61
2019-04-02T08:47:05.511Z,12.55
2019-04-02T08:48:05.457Z,12.54
2019-04-02T08:49:05.469Z,12.71
2019-04-02T08:50:05.445Z,12.59
2019-04-02T08:51:08.171Z,12.67
2019-04-02T08:52:05.412Z,12.63
2019-04-02T08:53:06.407Z,12.69
2019-04-02T08:54:05.387Z,12.69
2019-04-02T08:55:05.674Z,12.74
2019-04-02T08:56:05.383Z,12.81
2019-04-02T08:57:07.068Z,12.87
2019-04-02T08:58:05.352Z,13.12
2019-04-02T08:59:05.349Z,13.22
2019-04-02T09:00:05.426Z,13.39
2019-04-02T09:01:05.327Z,13.44
2019-04-02T09:02:06.066Z,13.61
2019-04-02T09:03:05.295Z,13.84
2019-04-02T09:04:05.291Z,13.93
2019-04-02T09:05:05.276Z,14.05
2019-04-02T09:06:05.458Z,14.24
2019-04-02T09:07:05.253Z,13.96
2019-04-02T09:09:15.631Z,14.06
2019-04-02T09:10:16.593Z,14.13
2019-04-02T09:11:27.545Z,14.42
2019-04-02T09:12:16.585Z,14.36
2019-04-02T09:13:16.579Z,14.46
2019-04-02T09:14:16.574Z,14.56
2019-04-02T09:15:16.570Z,14.39
2019-04-02T09:16:17.460Z,14.44
2019-04-02T09:17:16.863Z,14.34
2019-04-02T09:18:16.517Z,14.17
2019-04-02T09:19:16.503Z,14.04
2019-04-02T09:20:16.485Z,14.06
2019-04-02T09:21:16.500Z,13.90
2019-04-02T09:22:16.469Z,13.88
2019-04-02T09:23:16.459Z,14.06
2019-04-02T09:24:16.454Z,14.20
2019-04-02T09:25:16.430Z,14.13
2019-04-02T09:26:18.447Z,13.98
2019-04-02T09:27:16.437Z,14.02
2019-04-02T09:28:16.412Z,14.12
2019-04-02T09:29:16.410Z,14.12
2019-04-02T09:30:16.377Z,13.98
2019-04-02T09:31:16.430Z,13.87
2019-04-02T09:32:16.406Z,13.73
2019-04-02T09:33:16.379Z,13.75
2019-04-02T09:34:16.328Z,13.69
2019-04-02T09:35:16.325Z,13.72
2019-04-02T09:36:18.753Z,13.83
2019-04-02T09:37:16.309Z,13.88
2019-04-02T09:38:16.392Z,13.93
2019-04-02T09:39:16.298Z,14.09
2019-04-02T09:40:17.404Z,14.05
2019-04-02T09:41:16.378Z,14.19
2019-04-02T09:42:16.356Z,14.34
2019-04-02T09:43:16.237Z,14.54
2019-04-02T09:44:16.237Z,14.36
2019-04-02T09:45:16.277Z,14.34
2019-04-02T09:46:16.208Z,14.27
2019-04-02T09:47:16.223Z,14.38
2019-04-02T09:48:16.175Z,14.29
2019-04-02T09:49:16.171Z,14.34
2019-04-02T09:50:16.161Z,14.52
2019-04-02T09:51:16.161Z,14.54
2019-04-02T09:52:16.195Z,14.52
2019-04-02T09:53:16.136Z,14.63
2019-04-02T09:54:16.105Z,14.82
2019-04-02T09:55:16.113Z,15.05
2019-04-02T09:56:16.098Z,15.05
2019-04-02T09:57:16.107Z,15.20
2019-04-02T09:58:16.090Z,15.11
2019-04-02T09:59:16.099Z,14.93
2019-04-02T10:00:16.132Z,15.12
2019-04-02T10:01:16.036Z,15.01
2019-04-02T10:02:16.052Z,15.11
2019-04-02T10:03:16.604Z,15.07
2019-04-02T10:04:16.002Z,15.19
2019-04-02T10:05:16.014Z,15.20
2019-04-02T10:06:15.987Z,15.31
2019-04-02T10:07:15.991Z,15.34
2019-04-02T10:08:15.962Z,15.52
2019-04-02T10:09:15.998Z,15.70
2019-04-02T10:10:16.100Z,15.55
2019-04-02T10:11:15.938Z,15.48
2019-04-02T10:12:15.934Z,15.35
2019-04-02T10:13:15.907Z,15.30
2019-04-02T10:14:16.166Z,15.34
2019-04-02T10:15:15.877Z,15.19
2019-04-02T10:16:15.931Z,15.23
2019-04-02T10:17:16.276Z,15.27
2019-04-02T10:18:15.842Z,15.28
2019-04-02T10:19:15.912Z,15.40
2019-04-02T10:20:15.863Z,15.35
2019-04-02T10:21:16.447Z,15.38
2019-04-02T10:22:16.763Z,15.49
2019-04-02T10:23:15.879Z,15.60
2019-04-02T10:24:16.047Z,15.64
2019-04-02T10:25:15.783Z,15.77
2019-04-02T10:26:15.792Z,15.80
2019-04-02T10:27:15.784Z,15.84
2019-04-02T10:28:15.807Z,15.76
2019-04-02T10:29:15.736Z,15.89
2019-04-02T10:30:15.788Z,16.10
2019-04-02T10:31:15.712Z,15.84
2019-04-02T10:32:17.795Z,15.71
2019-04-02T10:33:15.685Z,15.67
2019-04-02T10:34:16.761Z,15.59
2019-04-02T10:35:16.787Z,15.48
2019-04-02T10:36:16.468Z,15.59
2019-04-02T10:37:15.721Z,15.85
2019-04-02T10:38:15.974Z,15.78
2019-04-02T10:39:15.625Z,15.85
2019-04-02T10:40:15.607Z,15.88
2019-04-02T10:41:15.608Z,15.89
2019-04-02T10:42:15.600Z,16.06
2019-04-02T10:43:15.565Z,16.07
2019-04-02T10:44:15.562Z,16.04
2019-04-02T10:45:24.981Z,16.06
2019-04-02T10:46:15.534Z,16.23
2019-04-02T10:47:15.538Z,16.13
2019-04-02T10:48:15.518Z,16.23
2019-04-02T10:49:15.517Z,16.27
2019-04-02T10:50:15.510Z,16.33
2019-04-02T10:51:15.484Z,16.26
2019-04-02T10:52:15.515Z,16.18
2019-04-02T10:53:15.459Z,16.33
2019-04-02T10:54:15.442Z,16.51
2019-04-02T10:55:15.440Z,16.65
2019-04-02T10:56:15.429Z,16.88
2019-04-02T10:57:15.452Z,17.00
2019-04-02T10:58:16.028Z,17.00
2019-04-02T10:59:15.398Z,17.00
2019-04-02T11:00:15.413Z,17.05
2019-04-02T11:01:15.370Z,17.25
2019-04-02T11:02:15.698Z,17.32
2019-04-02T11:03:16.404Z,17.43
2019-04-02T11:04:15.338Z,17.51
2019-04-02T11:05:18.291Z,17.66
2019-04-02T11:06:15.321Z,17.51
2019-04-02T11:07:15.313Z,17.02
2019-04-02T11:08:17.320Z,17.00
2019-04-02T11:10:24.478Z,17.32
2019-04-02T11:11:25.465Z,17.51
2019-04-02T11:12:25.482Z,17.66
2019-04-02T11:13:25.478Z,17.76
2019-04-02T11:14:25.460Z,17.89
2019-04-02T11:15:25.455Z,18.09
2019-04-02T11:16:25.405Z,18.14
2019-04-02T11:17:25.422Z,18.20
2019-04-02T11:18:27.290Z,18.32
2019-04-02T11:19:25.373Z,18.35
2019-04-02T11:20:25.390Z,18.17
2019-04-02T11:21:25.392Z,18.04
2019-04-02T11:22:25.345Z,17.84
2019-04-02T11:23:25.361Z,17.89
2019-04-02T11:24:27.316Z,18.14
2019-04-02T11:25:25.325Z,18.11
2019-04-02T11:26:26.784Z,18.10
2019-04-02T11:27:25.303Z,18.20
2019-04-02T11:28:25.336Z,18.21
2019-04-02T11:29:25.280Z,18.17
2019-04-02T11:30:25.308Z,18.19
2019-04-02T11:31:25.245Z,18.11
2019-04-02T11:32:25.237Z,18.04
2019-04-02T11:33:25.250Z,18.14
2019-04-02T11:34:25.211Z,18.28
2019-04-02T11:35:25.204Z,18.36
2019-04-02T11:36:25.183Z,18.60
2019-04-02T11:37:25.187Z,18.57
2019-04-02T11:38:25.185Z,18.49
2019-04-02T11:39:25.155Z,18.56
2019-04-02T11:40:25.141Z,18.60
2019-04-02T11:41:25.127Z,18.38
2019-04-02T11:42:25.133Z,18.23
2019-04-02T11:43:25.179Z,18.21
2019-04-02T11:44:25.762Z,18.21
2019-04-02T11:45:25.119Z,18.35
2019-04-02T11:46:27.673Z,18.42
2019-04-02T11:47:25.088Z,18.39
2019-04-02T11:48:25.077Z,18.41
2019-04-02T11:49:25.053Z,18.20
2019-04-02T11:50:25.028Z,18.23
2019-04-02T11:51:25.027Z,17.94
2019-04-02T11:52:25.020Z,17.87
2019-04-02T11:53:25.025Z,18.07
2019-04-02T11:54:25.137Z,18.14
2019-04-02T11:55:25.004Z,18.29
2019-04-02T11:56:24.976Z,18.16
2019-04-02T11:57:25.035Z,18.19
2019-04-02T11:58:24.970Z,18.02
2019-04-02T11:59:24.932Z,18.02
2019-04-02T12:00:24.931Z,17.83
2019-04-02T12:01:24.910Z,17.81
2019-04-02T12:02:24.915Z,18.05
2019-04-02T12:03:24.917Z,18.01
2019-04-02T12:04:25.184Z,18.14
2019-04-02T12:05:24.877Z,18.13
2019-04-02T12:06:32.661Z,17.96
2019-04-02T12:07:24.861Z,17.91
2019-04-02T12:08:24.855Z,17.98
2019-04-02T12:09:24.834Z,18.02
2019-04-02T12:10:24.817Z,18.01
2019-04-02T12:11:24.826Z,17.96
2019-04-02T12:12:24.787Z,18.10
2019-04-02T12:13:24.802Z,18.14
2019-04-02T12:14:24.793Z,18.35
2019-04-02T12:15:45.300Z,18.44
2019-04-02T12:16:26.568Z,18.16
2019-04-02T12:17:24.765Z,18.04
2019-04-02T12:18:24.750Z,18.26
2019-04-02T12:19:24.715Z,18.04
2019-04-02T12:20:24.731Z,18.13
2019-04-02T12:21:24.689Z,18.11
2019-04-02T12:22:24.697Z,18.17
2019-04-02T12:23:24.695Z,18.35
2019-04-02T12:24:24.666Z,18.38
2019-04-02T12:25:24.670Z,18.41
2019-04-02T12:26:24.640Z,17.95
2019-04-02T12:27:25.490Z,17.98
2019-04-02T12:28:24.634Z,18.01
2019-04-02T12:29:24.612Z,18.16
2019-04-02T12:30:24.597Z,18.36
2019-04-02T12:31:24.597Z,18.41
2019-04-02T12:32:24.585Z,18.31
2019-04-02T12:33:24.582Z,18.20
2019-04-02T12:34:24.598Z,18.23
2019-04-02T12:35:24.741Z,18.46
2019-04-02T12:36:24.526Z,18.54
2019-04-02T12:37:24.546Z,18.32
2019-04-02T12:38:24.522Z,18.31
2019-04-02T12:39:24.522Z,18.23
2019-04-02T12:40:24.501Z,17.99
2019-04-02T12:41:24.486Z,17.99
2019-04-02T12:42:24.478Z,18.20
2019-04-02T12:43:24.460Z,18.41
2019-04-02T12:44:24.469Z,18.39
2019-04-02T12:45:24.437Z,18.31
2019-04-02T12:46:24.434Z,18.31
2019-04-02T12:47:25.211Z,18.53
2019-04-02T12:48:24.410Z,18.71
2019-04-02T12:49:24.416Z,18.76
2019-04-02T12:50:24.394Z,18.93
2019-04-02T12:51:24.361Z,18.93
2019-04-02T12:52:24.365Z,18.66
2019-04-02T12:53:24.346Z,18.26
2019-04-02T12:54:24.359Z,18.20
2019-04-02T12:55:24.326Z,18.19
2019-04-02T12:56:24.321Z,18.09
2019-04-02T12:57:26.752Z,18.05
2019-04-02T12:58:24.296Z,17.83
2019-04-02T12:59:24.305Z,17.89
2019-04-02T13:00:24.415Z,17.92
2019-04-02T13:01:24.257Z,17.91
2019-04-02T13:02:24.260Z,18.01
2019-04-02T13:03:24.318Z,17.74
2019-04-02T13:04:24.247Z,17.77
2019-04-02T13:05:24.217Z,17.73
2019-04-02T13:06:24.205Z,17.62
2019-04-02T13:07:24.210Z,17.57
2019-04-02T13:08:24.185Z,17.54
2019-04-02T13:09:24.211Z,17.49
2019-04-02T13:11:34.330Z,17.54
2019-04-02T13:12:36.302Z,17.46
2019-04-02T13:13:35.628Z,17.57
2019-04-02T13:14:34.340Z,17.79